createdAt,value
2022-12-25T00:01:33.365Z,10.38
2022-12-25T00:04:36.161Z,7.25
2022-12-25T00:07:39.101Z,8.07
2022-12-25T00:10:45.218Z,8.23
2022-12-25T00:13:48.999Z,7.00
2022-12-25T00:19:54.405Z,8.52
2022-12-25T00:22:57.505Z,8.45
2022-12-25T00:26:03.831Z,9.18
2022-12-25T00:29:06.657Z,8.18
2022-12-25T00:32:09.485Z,8.10
2022-12-25T00:35:12.351Z,8.18
2022-12-25T00:38:15.225Z,6.45
2022-12-25T00:41:43.635Z,8.25
2022-12-25T00:44:48.091Z,7.22
2022-12-25T00:47:50.829Z,8.80
2022-12-25T00:50:58.472Z,7.47
2022-12-25T00:54:01.730Z,10.32
2022-12-25T00:57:04.566Z,7.47
2022-12-25T01:00:08.008Z,10.27
2022-12-25T01:03:10.957Z,9.77
2022-12-25T01:06:13.937Z,9.95
2022-12-25T01:09:35.374Z,10.98
2022-12-25T01:12:40.753Z,11.55
2022-12-25T01:15:43.649Z,9.73
2022-12-25T01:18:46.915Z,9.18
2022-12-25T01:21:49.736Z,8.30
2022-12-25T01:24:52.527Z,11.27
2022-12-25T01:27:55.492Z,10.65
2022-12-25T01:30:58.375Z,8.95
2022-12-25T01:34:01.199Z,8.02
2022-12-25T01:37:04.258Z,8.23
2022-12-25T01:40:07.907Z,10.60
2022-12-25T01:43:20.439Z,7.72
2022-12-25T01:46:23.304Z,11.85
2022-12-25T01:49:26.403Z,9.43
2022-12-25T01:52:31.096Z,10.43
2022-12-25T01:55:35.189Z,8.80
2022-12-25T01:58:38.091Z,8.90
2022-12-25T02:01:42.093Z,10.23
2022-12-25T02:04:54.010Z,8.00
2022-12-25T02:07:59.618Z,10.73
2022-12-25T02:11:02.714Z,7.72
2022-12-25T02:17:21.232Z,9.80
2022-12-25T02:20:47.408Z,9.65
2022-12-25T02:23:56.458Z,9.45
2022-12-25T02:27:14.532Z,9.75
2022-12-25T02:30:17.934Z,10.13
2022-12-25T02:33:50.160Z,8.77
2022-12-25T02:37:02.655Z,8.70
2022-12-25T02:40:30.784Z,8.77
2022-12-25T02:43:59.155Z,10.20
2022-12-25T02:47:23.001Z,8.80
2022-12-25T02:50:44.719Z,10.18
2022-12-25T02:54:10.230Z,10.40
2022-12-25T02:57:36.153Z,13.00
2022-12-25T03:01:02.634Z,9.73
2022-12-25T03:04:29.264Z,13.10
2022-12-25T03:07:33.178Z,10.95
2022-12-25T03:10:59.067Z,10.77
2022-12-25T03:14:26.432Z,6.87
2022-12-25T03:17:32.454Z,8.57
2022-12-25T03:20:54.112Z,10.23
2022-12-25T03:24:19.465Z,9.45
2022-12-25T03:27:21.993Z,8.27
2022-12-25T03:31:00.497Z,6.68
2022-12-25T03:34:38.137Z,7.65
2022-12-25T03:38:24.396Z,13.48
2022-12-25T03:42:01.611Z,8.85
2022-12-25T03:45:40.342Z,6.95
2022-12-25T03:49:08.360Z,8.20
2022-12-25T03:52:34.880Z,7.53
2022-12-25T03:55:59.806Z,12.60
2022-12-25T03:59:24.157Z,11.55
2022-12-25T04:02:46.164Z,10.68
2022-12-25T04:06:21.607Z,14.90
2022-12-25T04:09:43.012Z,9.27
2022-12-25T04:13:04.819Z,11.52
2022-12-25T04:16:26.430Z,11.18
2022-12-25T04:19:48.006Z,9.10
2022-12-25T04:23:08.866Z,11.32
2022-12-25T04:26:30.202Z,11.15
2022-12-25T04:29:51.793Z,12.35
2022-12-25T04:33:19.408Z,12.07
2022-12-25T04:36:22.129Z,10.90
2022-12-25T04:39:25.210Z,10.75
2022-12-25T04:42:27.873Z,12.73
2022-12-25T04:45:30.973Z,16.52
2022-12-25T04:48:35.987Z,11.90
2022-12-25T04:51:39.126Z,10.63
2022-12-25T04:54:41.699Z,12.40
2022-12-25T04:57:45.301Z,13.27
2022-12-25T05:00:47.879Z,13.65
2022-12-25T05:03:51.038Z,10.40
2022-12-25T05:06:54.470Z,10.88
2022-12-25T05:09:58.397Z,13.20
2022-12-25T05:16:15.476Z,11.68
2022-12-25T05:19:18.028Z,9.80
2022-12-25T05:22:21.133Z,12.30
2022-12-25T05:25:23.688Z,12.10
2022-12-25T05:28:26.815Z,12.27
2022-12-25T05:31:29.340Z,11.83
2022-12-25T05:34:32.504Z,13.93
2022-12-25T05:37:36.294Z,11.23
2022-12-25T05:40:40.932Z,10.48
2022-12-25T05:43:43.611Z,11.50
2022-12-25T05:46:46.845Z,9.50
2022-12-25T05:49:49.400Z,12.20
2022-12-25T05:52:52.469Z,11.73
2022-12-25T05:55:54.960Z,10.13
2022-12-25T05:58:58.038Z,12.05
2022-12-25T06:02:00.736Z,9.83
2022-12-25T06:05:04.889Z,10.30
2022-12-25T06:08:07.672Z,10.05
2022-12-25T06:11:12.630Z,12.18
2022-12-25T06:14:17.089Z,11.60
2022-12-25T06:17:20.147Z,10.63
2022-12-25T06:20:22.702Z,12.30
2022-12-25T06:23:25.831Z,13.40
2022-12-25T06:26:28.571Z,13.83
2022-12-25T06:29:31.710Z,12.27
2022-12-25T06:32:34.279Z,11.13
2022-12-25T06:35:39.577Z,14.00
2022-12-25T06:38:42.407Z,12.70
2022-12-25T06:44:48.008Z,10.75
2022-12-25T06:47:51.121Z,13.45
2022-12-25T06:50:53.604Z,10.13
2022-12-25T06:53:58.802Z,11.00
2022-12-25T06:57:01.396Z,10.95
2022-12-25T07:00:05.304Z,20.30
2022-12-25T07:06:10.824Z,14.23
2022-12-25T07:09:13.357Z,12.67
2022-12-25T07:12:19.588Z,15.30
2022-12-25T07:15:22.084Z,13.10
2022-12-25T07:18:25.531Z,13.20
2022-12-25T07:21:28.056Z,17.17
2022-12-25T07:24:31.148Z,13.65
2022-12-25T07:27:33.642Z,16.47
2022-12-25T07:30:37.719Z,14.80
2022-12-25T07:36:43.153Z,19.90
2022-12-25T07:39:45.642Z,11.50
2022-12-25T07:42:48.859Z,16.30
2022-12-25T07:45:56.853Z,15.03
2022-12-25T07:49:00.751Z,15.80
2022-12-25T07:52:03.461Z,14.68
2022-12-25T07:55:06.861Z,14.25
2022-12-25T07:58:09.623Z,14.95
2022-12-25T08:01:19.465Z,11.48
2022-12-25T08:04:22.381Z,14.43
2022-12-25T08:07:25.271Z,14.75
2022-12-25T08:10:28.061Z,11.55
2022-12-25T08:13:32.603Z,16.92
2022-12-25T08:16:35.874Z,15.52
2022-12-25T08:22:41.394Z,14.35
2022-12-25T08:25:44.165Z,17.25
2022-12-25T08:28:47.802Z,13.15
2022-12-25T08:31:50.653Z,15.65
2022-12-25T08:34:53.516Z,14.40
2022-12-25T08:37:56.362Z,13.00
2022-12-25T08:40:59.186Z,15.75
2022-12-25T08:44:03.629Z,12.15
2022-12-25T08:47:06.412Z,10.00
2022-12-25T08:50:09.671Z,15.05
2022-12-25T08:53:14.048Z,13.07
2022-12-25T08:56:18.183Z,13.88
2022-12-25T08:59:21.137Z,10.13
2022-12-25T09:02:24.120Z,11.15
2022-12-25T09:05:27.133Z,12.13
2022-12-25T09:08:30.205Z,13.32
2022-12-25T09:11:33.059Z,10.02
2022-12-25T09:14:36.627Z,10.82
2022-12-25T09:17:39.722Z,10.30
2022-12-25T09:23:45.528Z,12.23
2022-12-25T09:26:48.677Z,12.65
2022-12-25T09:32:54.111Z,12.57
2022-12-25T09:36:08.677Z,10.38
2022-12-25T09:39:11.465Z,12.63
2022-12-25T09:42:19.426Z,12.05
2022-12-25T09:45:38.131Z,12.25
2022-12-25T09:48:50.432Z,11.43
2022-12-25T09:51:59.398Z,11.45
2022-12-25T09:55:08.505Z,11.02
2022-12-25T09:58:13.227Z,12.07
2022-12-25T10:01:22.236Z,12.25
2022-12-25T10:04:41.189Z,12.45
2022-12-25T10:08:09.062Z,11.90
2022-12-25T10:11:18.037Z,11.30
2022-12-25T10:14:38.730Z,9.63
2022-12-25T10:18:00.697Z,10.00
2022-12-25T10:21:11.136Z,12.95
2022-12-25T10:27:42.815Z,9.52
2022-12-25T10:30:46.030Z,11.88
2022-12-25T10:33:50.915Z,10.35
2022-12-25T10:36:54.697Z,11.57
2022-12-25T10:39:57.392Z,9.82
2022-12-25T10:43:08.948Z,8.25
2022-12-25T10:46:14.536Z,9.07
2022-12-25T10:49:20.968Z,8.05
2022-12-25T10:52:26.840Z,8.32
2022-12-25T10:55:30.175Z,7.70
2022-12-25T10:58:33.937Z,7.07
2022-12-25T11:01:37.325Z,7.68
2022-12-25T11:04:40.428Z,8.48
2022-12-25T11:07:54.347Z,6.55
2022-12-25T11:11:08.846Z,6.72
2022-12-25T11:14:20.559Z,9.40
2022-12-25T11:17:25.573Z,7.60
2022-12-25T11:20:30.043Z,7.95
2022-12-25T11:23:33.092Z,6.18
2022-12-25T11:26:50.346Z,5.65
2022-12-25T11:30:04.562Z,6.07
2022-12-25T11:33:12.580Z,9.18
2022-12-25T11:36:27.004Z,4.30
2022-12-25T11:39:31.278Z,6.50
2022-12-25T11:42:33.770Z,4.78
2022-12-25T11:45:40.487Z,11.40
2022-12-25T11:49:08.851Z,6.60
2022-12-25T11:52:14.597Z,4.37
2022-12-25T11:55:19.903Z,5.53
2022-12-25T11:58:39.742Z,6.62
2022-12-25T12:01:42.337Z,5.32
2022-12-25T12:16:31.046Z,5.60
2022-12-25T12:19:34.862Z,4.50
2022-12-25T12:22:37.786Z,3.08
2022-12-25T12:25:42.911Z,3.53
2022-12-25T12:28:47.947Z,4.80
2022-12-25T12:31:52.181Z,5.00
2022-12-25T12:34:56.673Z,5.40
2022-12-25T12:38:12.006Z,4.72
2022-12-25T12:41:16.382Z,8.75
2022-12-25T12:44:25.031Z,7.12
2022-12-25T12:47:37.098Z,9.45
2022-12-25T12:50:41.581Z,8.70
2022-12-25T12:53:44.466Z,6.93
2022-12-25T12:57:02.606Z,6.85
2022-12-25T13:00:10.806Z,8.20
2022-12-25T13:03:44.691Z,7.18
2022-12-25T13:06:57.092Z,7.25
2022-12-25T13:10:13.718Z,6.82
2022-12-25T13:13:28.356Z,9.43
2022-12-25T13:16:38.744Z,8.35
2022-12-25T13:19:43.654Z,9.65
2022-12-25T13:22:52.413Z,7.47
2022-12-25T13:25:58.144Z,6.78
2022-12-25T13:29:03.897Z,8.07
2022-12-25T13:32:30.965Z,8.15
2022-12-25T13:35:33.789Z,8.55
2022-12-25T13:38:36.864Z,8.10
2022-12-25T13:45:18.701Z,7.12
2022-12-25T13:48:23.263Z,9.10
2022-12-25T13:51:26.795Z,9.77
2022-12-25T13:54:29.794Z,6.10
2022-12-25T14:00:52.810Z,6.62
2022-12-25T14:03:56.508Z,6.18
2022-12-25T14:10:13.095Z,10.18
2022-12-25T14:13:18.110Z,7.68
2022-12-25T14:16:22.216Z,8.57
2022-12-25T14:19:30.712Z,10.70
2022-12-25T14:22:35.457Z,8.35
2022-12-25T14:25:45.446Z,11.32
2022-12-25T14:28:54.070Z,10.77
2022-12-25T14:31:58.857Z,10.20
2022-12-25T14:35:03.652Z,11.73
2022-12-25T14:38:06.556Z,15.40
2022-12-25T14:41:33.569Z,11.70
2022-12-25T14:44:41.327Z,12.27
2022-12-25T14:47:59.972Z,14.52
2022-12-25T14:51:15.518Z,14.07
2022-12-25T14:54:22.505Z,15.73
2022-12-25T14:57:34.742Z,17.12
2022-12-25T15:00:39.486Z,17.62
2022-12-25T15:03:42.131Z,17.85
2022-12-25T15:10:27.029Z,16.83
2022-12-25T15:13:21.516Z,18.25
2022-12-25T15:16:40.019Z,17.05
2022-12-25T15:19:43.341Z,17.70
2022-12-25T15:23:17.818Z,23.73
2022-12-25T15:26:13.521Z,23.05
2022-12-25T15:29:16.144Z,19.73
2022-12-25T15:35:22.805Z,20.70
2022-12-25T15:38:25.885Z,20.02
2022-12-25T15:41:50.004Z,18.87
2022-12-25T15:44:53.202Z,20.83
2022-12-25T15:47:56.047Z,20.88
2022-12-25T15:50:59.242Z,21.90
2022-12-25T15:54:01.857Z,16.92
2022-12-25T15:57:07.173Z,18.50
2022-12-25T16:00:17.434Z,18.27
2022-12-25T16:03:21.015Z,17.95
2022-12-25T16:06:23.872Z,21.20
2022-12-25T16:09:27.981Z,18.50
2022-12-25T16:15:34.327Z,17.92
2022-12-25T16:18:41.942Z,17.48
2022-12-25T16:21:50.435Z,21.00
2022-12-25T16:24:53.808Z,16.87
2022-12-25T16:27:57.065Z,17.85
2022-12-25T16:31:00.016Z,19.08
2022-12-25T16:34:05.115Z,17.35
2022-12-25T16:37:08.077Z,17.25
2022-12-25T16:40:11.924Z,15.25
2022-12-25T16:43:20.292Z,15.07
2022-12-25T16:46:27.032Z,15.73
2022-12-25T16:49:30.021Z,18.70
2022-12-25T16:52:36.411Z,17.55
2022-12-25T16:55:40.001Z,15.73
2022-12-25T16:58:47.717Z,15.98
2022-12-25T17:01:50.582Z,17.12
2022-12-25T17:04:54.728Z,18.95
2022-12-25T17:07:59.389Z,16.10
2022-12-25T17:11:04.667Z,20.62
2022-12-25T17:14:07.615Z,18.65
2022-12-25T17:17:11.314Z,18.60
2022-12-25T17:20:20.286Z,20.37
2022-12-25T17:23:23.952Z,19.10
2022-12-25T17:26:27.884Z,18.33
2022-12-25T17:29:32.032Z,20.70
2022-12-25T17:35:38.427Z,20.90
2022-12-25T17:38:42.253Z,15.48
2022-12-25T17:41:46.034Z,18.75
2022-12-25T17:44:48.973Z,20.83
2022-12-25T17:47:55.063Z,21.27
2022-12-25T17:51:02.308Z,21.77
2022-12-25T17:54:06.102Z,20.65
2022-12-25T17:57:09.033Z,24.00
2022-12-25T18:00:13.284Z,21.50
2022-12-25T18:03:16.786Z,22.48
2022-12-25T18:06:25.231Z,25.17
2022-12-25T18:09:28.524Z,24.60
2022-12-25T18:12:32.151Z,20.92
2022-12-25T18:15:38.555Z,22.00
2022-12-25T18:18:46.524Z,26.45
2022-12-25T18:21:54.645Z,22.87
2022-12-25T18:24:58.058Z,24.73
2022-12-25T18:28:02.735Z,25.00
2022-12-25T18:31:24.744Z,24.75
2022-12-25T18:34:28.061Z,21.52
2022-12-25T18:40:48.349Z,24.30
2022-12-25T18:43:55.562Z,21.83
2022-12-25T18:46:59.254Z,21.90
2022-12-25T18:50:03.170Z,24.75
2022-12-25T18:53:07.505Z,24.02
2022-12-25T18:56:15.250Z,26.30
2022-12-25T18:59:18.852Z,20.85
2022-12-25T19:02:22.360Z,22.10
2022-12-25T19:05:26.344Z,22.00
2022-12-25T19:08:29.695Z,18.40
2022-12-25T19:11:46.617Z,20.90
2022-12-25T19:14:50.844Z,24.23
2022-12-25T19:17:56.960Z,14.45
2022-12-25T19:21:05.465Z,14.90
2022-12-25T19:24:08.819Z,20.73
2022-12-25T19:27:12.252Z,16.83
2022-12-25T19:30:15.755Z,16.98
2022-12-25T19:33:19.081Z,15.43
2022-12-25T19:36:22.288Z,14.25
2022-12-25T19:39:25.706Z,19.20
2022-12-25T19:42:28.946Z,19.48
2022-12-25T19:45:32.756Z,15.73
2022-12-25T19:48:36.306Z,19.58
2022-12-25T19:51:43.027Z,16.87
2022-12-25T19:54:46.309Z,17.62
2022-12-25T19:57:50.140Z,19.12
2022-12-25T20:01:01.659Z,18.98
2022-12-25T20:04:08.710Z,20.17
2022-12-25T20:07:11.700Z,21.77
2022-12-25T20:10:15.210Z,19.33
2022-12-25T20:13:18.602Z,16.92
2022-12-25T20:16:22.654Z,17.12
2022-12-25T20:19:25.453Z,18.08
2022-12-25T20:25:31.373Z,20.70
2022-12-25T20:31:38.792Z,24.15
2022-12-25T20:34:42.051Z,24.40
2022-12-25T20:37:45.039Z,23.42
2022-12-25T20:41:25.127Z,19.52
2022-12-25T20:44:10.960Z,21.12
2022-12-25T20:47:14.387Z,25.37
2022-12-25T20:50:17.134Z,23.58
2022-12-25T20:53:20.468Z,24.90
2022-12-25T20:56:24.997Z,19.92
2022-12-25T20:59:35.243Z,21.15
2022-12-25T21:02:40.088Z,18.90
2022-12-25T21:05:51.523Z,22.55
2022-12-25T21:08:54.778Z,25.02
2022-12-25T21:11:58.091Z,21.08
2022-12-25T21:15:00.825Z,21.12
2022-12-25T21:21:07.792Z,26.67
2022-12-25T21:24:11.147Z,20.20
2022-12-25T21:27:14.033Z,21.42
2022-12-25T21:30:17.360Z,19.90
2022-12-25T21:33:38.801Z,19.85
2022-12-25T21:36:41.973Z,20.88
2022-12-25T21:39:44.523Z,19.83
2022-12-25T21:45:50.137Z,16.90
2022-12-25T21:48:54.246Z,19.23
2022-12-25T21:52:09.361Z,16.08
2022-12-25T21:55:12.548Z,18.08
2022-12-25T21:58:15.081Z,16.90
2022-12-25T22:01:18.723Z,18.12
2022-12-25T22:04:23.293Z,19.30
2022-12-25T22:07:26.131Z,17.00
2022-12-25T22:10:31.162Z,14.30
2022-12-25T22:13:52.746Z,17.98
2022-12-25T22:17:14.153Z,15.93
2022-12-25T22:20:28.263Z,17.10
2022-12-25T22:23:31.211Z,14.23
2022-12-25T22:26:35.000Z,14.07
2022-12-25T22:29:37.945Z,14.52
2022-12-25T22:32:41.434Z,16.42
2022-12-25T22:35:44.336Z,16.08
2022-12-25T22:38:47.214Z,15.60
2022-12-25T22:41:50.094Z,14.32
2022-12-25T22:44:52.968Z,17.70
2022-12-25T22:47:55.839Z,17.00
2022-12-25T22:51:02.610Z,14.93
2022-12-25T22:54:08.727Z,14.30
2022-12-25T22:57:11.700Z,18.92
2022-12-25T23:00:14.814Z,16.23
2022-12-25T23:03:17.865Z,13.88
2022-12-25T23:06:21.134Z,17.45
2022-12-25T23:09:27.895Z,20.05
2022-12-25T23:12:50.546Z,17.55
2022-12-25T23:15:53.440Z,18.17
2022-12-25T23:19:15.295Z,17.12
2022-12-25T23:22:36.928Z,18.30
2022-12-25T23:25:58.990Z,15.40
2022-12-25T23:29:20.701Z,18.45
2022-12-25T23:32:27.952Z,17.12
2022-12-25T23:35:32.777Z,17.10
2022-12-25T23:38:36.862Z,19.50
2022-12-25T23:41:41.440Z,17.27
2022-12-25T23:44:45.381Z,19.67
2022-12-25T23:47:48.269Z,17.40
2022-12-25T23:50:51.315Z,15.75
2022-12-25T23:53:54.250Z,17.92
2022-12-25T23:56:58.535Z,19.52
